createdAt,value
2016-08-24T00:00:31.956Z,92.82
2016-08-24T00:01:32.553Z,92.92
2016-08-24T00:02:30.330Z,93.59
2016-08-24T00:03:30.831Z,93.49
2016-08-24T00:04:31.610Z,93.4
2016-08-24T00:05:31.733Z,93.69
2016-08-24T00:06:31.903Z,93.3
2016-08-24T00:07:31.999Z,93.3
2016-08-24T00:08:31.170Z,93.49
2016-08-24T00:09:31.202Z,92.44
2016-08-24T00:10:31.222Z,92.44
2016-08-24T00:11:32.063Z,92.15
2016-08-24T00:12:31.141Z,92.44
2016-08-24T00:13:32.275Z,91.58
2016-08-24T00:14:30.845Z,91.77
2016-08-24T00:15:31.307Z,91.67
2016-08-24T00:16:31.419Z,91.77
2016-08-24T00:17:32.354Z,91.49
2016-08-24T00:18:32.876Z,91.58
2016-08-24T00:19:32.029Z,91.49
2016-08-24T00:20:31.737Z,91.77
2016-08-24T00:21:31.295Z,91.77
2016-08-24T00:22:30.773Z,91.58
2016-08-24T00:23:31.565Z,91.29
2016-08-24T00:24:31.210Z,91.77
2016-08-24T00:25:32.822Z,92.73
2016-08-24T00:26:31.817Z,92.15
2016-08-24T00:27:32.348Z,92.63
2016-08-24T00:28:32.727Z,92.35
2016-08-24T00:29:31.808Z,93.02
2016-08-24T00:30:31.513Z,92.44
2016-08-24T00:31:31.775Z,93.4
2016-08-24T00:32:31.763Z,92.35
2016-08-24T00:33:32.631Z,92.35
2016-08-24T00:34:31.602Z,92.25
2016-08-24T00:35:31.790Z,92.35
2016-08-24T00:36:32.279Z,92.15
2016-08-24T00:37:31.912Z,92.15
2016-08-24T00:38:32.344Z,92.15
2016-08-24T00:39:31.445Z,92.54
2016-08-24T00:40:32.686Z,91.77
2016-08-24T00:41:31.305Z,93.21
2016-08-24T00:42:31.525Z,93.21
2016-08-24T00:43:31.637Z,93.21
2016-08-24T00:44:31.853Z,92.92
2016-08-24T00:45:32.642Z,92.92
2016-08-24T00:46:32.667Z,92.82
2016-08-24T00:47:33.724Z,92.44
2016-08-24T00:48:32.707Z,92.06
2016-08-24T00:49:32.043Z,92.15
2016-08-24T00:50:31.791Z,93.21
2016-08-24T00:51:32.358Z,93.4
2016-08-24T00:52:32.906Z,93.54
2016-08-24T00:53:32.830Z,93.26
2016-08-24T00:54:32.181Z,93.74
2016-08-24T00:55:32.516Z,93.74
2016-08-24T00:56:32.412Z,93.26
2016-08-24T00:57:32.624Z,93.26
2016-08-24T00:58:32.088Z,94.12
2016-08-24T00:59:31.906Z,93.54
2016-08-24T01:00:32.465Z,93.74
2016-08-24T01:01:32.062Z,93.16
2016-08-24T01:02:32.494Z,93.93
2016-08-24T01:03:32.920Z,93.35
2016-08-24T01:04:33.329Z,93.07
2016-08-24T01:05:32.607Z,94.02
2016-08-24T01:06:33.782Z,93.74
2016-08-24T01:07:33.643Z,94.12
2016-08-24T01:08:33.607Z,93.98
2016-08-24T01:09:32.183Z,93.93
2016-08-24T01:10:31.979Z,93.54
2016-08-24T01:11:32.356Z,93.54
2016-08-24T01:12:31.986Z,93.16
2016-08-24T01:13:32.436Z,93.16
2016-08-24T01:14:32.445Z,93.26
2016-08-24T01:15:33.059Z,93.83
2016-08-24T01:16:33.462Z,93.93
2016-08-24T01:17:32.172Z,93.74
2016-08-24T01:18:32.417Z,93.74
2016-08-24T01:19:33.896Z,93.64
2016-08-24T01:20:32.939Z,94.4
2016-08-24T01:21:32.293Z,95.22
2016-08-24T01:22:32.808Z,95.41
2016-08-24T01:23:33.427Z,95.51
2016-08-24T01:24:32.870Z,95.31
2016-08-24T01:25:34.060Z,95.17
2016-08-24T01:26:32.879Z,95.41
2016-08-24T01:27:32.978Z,94.36
2016-08-24T01:28:33.032Z,94.6
2016-08-24T01:29:34.550Z,94.4
2016-08-24T01:30:34.495Z,93.88
2016-08-24T01:31:32.844Z,95.36
2016-08-24T01:32:33.014Z,95.61
2016-08-24T01:33:33.746Z,95.12
2016-08-24T01:34:32.895Z,95.51
2016-08-24T01:35:33.863Z,95.98
2016-08-24T01:36:33.910Z,95.61
2016-08-24T01:37:33.820Z,94.74
2016-08-24T01:38:33.850Z,93.69
2016-08-24T01:39:33.957Z,93.16
2016-08-24T01:40:32.898Z,93.93
2016-08-24T01:41:33.823Z,94.93
2016-08-24T01:42:33.630Z,94.65
2016-08-24T01:43:33.635Z,94.55
2016-08-24T01:44:32.535Z,94.5
2016-08-24T01:45:33.504Z,94.07
2016-08-24T01:46:34.499Z,93.93
2016-08-24T01:47:35.181Z,94.21
2016-08-24T01:48:32.934Z,94.36
2016-08-24T01:49:33.131Z,94.5
2016-08-24T01:50:33.758Z,93.93
2016-08-24T01:51:33.992Z,94.12
2016-08-24T01:52:34.336Z,93.93
2016-08-24T01:53:33.653Z,93.83
2016-08-24T01:54:34.101Z,93.45
2016-08-24T01:55:33.699Z,94.12
2016-08-24T01:56:34.040Z,93.64
2016-08-24T01:57:34.101Z,93.83
2016-08-24T01:58:34.499Z,93.54
2016-08-24T01:59:34.006Z,93.54
2016-08-24T02:00:33.875Z,94.12
2016-08-24T02:01:33.907Z,94.79
2016-08-24T02:02:33.754Z,93.93
2016-08-24T02:03:34.685Z,94.4
2016-08-24T02:04:34.173Z,94.31
2016-08-24T02:05:34.730Z,94.02
2016-08-24T02:06:35.177Z,93.83
2016-08-24T02:07:34.725Z,93.93
2016-08-24T02:08:34.842Z,94.31
2016-08-24T02:09:34.320Z,94.89
2016-08-24T02:10:34.002Z,95.56
2016-08-24T02:11:34.907Z,96.42
2016-08-24T02:12:34.830Z,95.51
2016-08-24T02:13:34.920Z,95.22
2016-08-24T02:14:35.788Z,94.79
2016-08-24T02:15:34.176Z,94.74
2016-08-24T02:16:35.037Z,94.6
2016-08-24T02:17:34.882Z,94.65
2016-08-24T02:18:34.551Z,95.17
2016-08-24T02:19:33.702Z,95.27
2016-08-24T02:20:34.197Z,95.17
2016-08-24T02:21:34.805Z,95.17
2016-08-24T02:22:34.187Z,95.65
2016-08-24T02:23:34.843Z,96.18
2016-08-24T02:24:34.008Z,95.98
2016-08-24T02:25:34.957Z,96.37
2016-08-24T02:26:34.629Z,95.98
2016-08-24T02:27:36.580Z,96.27
2016-08-24T02:28:34.820Z,96.75
2016-08-24T02:29:34.931Z,96.56
2016-08-24T02:30:35.669Z,95.51
2016-08-24T02:31:35.124Z,95.31
2016-08-24T02:32:35.152Z,95.41
2016-08-24T02:33:34.337Z,96.08
2016-08-24T02:34:34.080Z,96.27
2016-08-24T02:35:35.477Z,96.37
2016-08-24T02:36:34.535Z,96.18
2016-08-24T02:37:34.137Z,97.13
2016-08-24T02:38:33.916Z,96.84
2016-08-24T02:39:34.543Z,97.56
2016-08-24T02:40:34.634Z,97.47
2016-08-24T02:41:34.673Z,96.8
2016-08-24T02:42:34.695Z,96.27
2016-08-24T02:43:34.020Z,96.75
2016-08-24T02:44:35.453Z,97.42
2016-08-24T02:45:35.569Z,97.37
2016-08-24T02:46:35.632Z,97.85
2016-08-24T02:47:36.053Z,97.56
2016-08-24T02:48:37.088Z,97.08
2016-08-24T02:49:34.447Z,96.32
2016-08-24T02:50:36.135Z,96.8
2016-08-24T02:51:35.530Z,96.61
2016-08-24T02:52:35.435Z,96.8
2016-08-24T02:53:35.152Z,96.7
2016-08-24T02:54:36.566Z,96.7
2016-08-24T02:55:35.153Z,96.32
2016-08-24T02:56:34.438Z,95.94
2016-08-24T02:57:36.292Z,96.27
2016-08-24T02:58:35.607Z,96.13
2016-08-24T02:59:35.420Z,96.18
2016-08-24T03:00:35.498Z,95.51
2016-08-24T03:01:35.767Z,95.22
2016-08-24T03:02:36.275Z,95.51
2016-08-24T03:03:35.527Z,95.79
2016-08-24T03:04:35.412Z,95.61
2016-08-24T03:05:36.116Z,95.07
2016-08-24T03:06:35.536Z,95.61
2016-08-24T03:07:35.668Z,95.36
2016-08-24T03:08:34.929Z,95.36
2016-08-24T03:09:34.525Z,94.79
2016-08-24T03:10:34.901Z,94.89
2016-08-24T03:11:35.762Z,94.84
2016-08-24T03:12:35.679Z,94.84
2016-08-24T03:13:35.612Z,94.93
2016-08-24T03:14:36.183Z,95.41
2016-08-24T03:15:35.306Z,96.27
2016-08-24T03:16:35.935Z,96.18
2016-08-24T03:17:36.899Z,95.51
2016-08-24T03:18:35.823Z,95.03
2016-08-24T03:19:34.919Z,95.79
2016-08-24T03:20:35.652Z,95.41
2016-08-24T03:21:36.307Z,96.18
2016-08-24T03:22:35.685Z,95.94
2016-08-24T03:23:36.668Z,95.56
2016-08-24T03:24:35.974Z,95.27
2016-08-24T03:25:35.743Z,96.42
2016-08-24T03:26:36.772Z,95.94
2016-08-24T03:27:35.749Z,96.42
2016-08-24T03:28:37.987Z,95.75
2016-08-24T03:29:35.505Z,96.03
2016-08-24T03:30:35.564Z,96.13
2016-08-24T03:31:36.078Z,95.27
2016-08-24T03:32:35.740Z,95.17
2016-08-24T03:33:35.483Z,96.51
2016-08-24T03:34:37.253Z,96.7
2016-08-24T03:35:35.859Z,96.61
2016-08-24T03:36:36.205Z,97.47
2016-08-24T03:37:36.561Z,97.66
2016-08-24T03:38:36.065Z,97.95
2016-08-24T03:39:35.957Z,96.42
2016-08-24T03:40:37.092Z,95.36
2016-08-24T03:41:36.747Z,95.36
2016-08-24T03:42:36.535Z,95.46
2016-08-24T03:43:36.699Z,95.27
2016-08-24T03:44:36.711Z,95.31
2016-08-24T03:45:36.972Z,95.17
2016-08-24T03:46:36.515Z,95.36
2016-08-24T03:47:38.502Z,94.98
2016-08-24T03:48:36.171Z,95.12
2016-08-24T03:49:36.111Z,95.27
2016-08-24T03:50:36.919Z,95.36
2016-08-24T03:51:38.785Z,95.17
2016-08-24T03:52:36.883Z,95.36
2016-08-24T03:53:36.955Z,95.46
2016-08-24T03:54:36.532Z,95.27
2016-08-24T03:55:37.652Z,96.51
2016-08-24T03:56:36.722Z,96.51
2016-08-24T03:57:37.471Z,96.13
2016-08-24T03:58:37.725Z,96.32
2016-08-24T03:59:36.958Z,96.03
2016-08-24T04:00:36.495Z,95.36
2016-08-24T04:01:36.799Z,95.65
2016-08-24T04:02:37.117Z,95.36
2016-08-24T04:03:37.516Z,95.07
2016-08-24T04:04:37.592Z,94.7
2016-08-24T04:05:36.224Z,94.31
2016-08-24T04:06:37.447Z,94.79
2016-08-24T04:07:37.435Z,95.46
2016-08-24T04:08:37.068Z,95.17
2016-08-24T04:09:37.402Z,95.17
2016-08-24T04:10:38.103Z,95.07
2016-08-24T04:11:37.407Z,95.17
2016-08-24T04:12:37.681Z,95.65
2016-08-24T04:13:37.481Z,94.79
2016-08-24T04:14:37.708Z,95.17
2016-08-24T04:15:37.347Z,94.79
2016-08-24T04:16:39.612Z,94.98
2016-08-24T04:17:37.715Z,95.07
2016-08-24T04:18:37.566Z,95.65
2016-08-24T04:19:37.854Z,95.36
2016-08-24T04:20:36.680Z,95.65
2016-08-24T04:21:36.890Z,95.56
2016-08-24T04:22:36.847Z,95.17
2016-08-24T04:23:37.655Z,95.07
2016-08-24T04:24:37.159Z,95.41
2016-08-24T04:25:39.531Z,95.36
2016-08-24T04:26:38.059Z,96.61
2016-08-24T04:27:37.252Z,97.75
2016-08-24T04:28:38.519Z,97.52
2016-08-24T04:29:37.427Z,97.8
2016-08-24T04:30:37.226Z,97.9
2016-08-24T04:31:38.807Z,97.71
2016-08-24T04:32:37.791Z,96.66
2016-08-24T04:33:37.186Z,96.51
2016-08-24T04:34:37.649Z,96.8
2016-08-24T04:35:37.243Z,96.42
2016-08-24T04:36:38.891Z,95.27
2016-08-24T04:37:38.770Z,96.42
2016-08-24T04:38:37.699Z,95.84
2016-08-24T04:39:37.180Z,95.84
2016-08-24T04:40:37.262Z,96.13
2016-08-24T04:41:37.229Z,95.56
2016-08-24T04:42:37.668Z,95.56
2016-08-24T04:43:39.007Z,95.46
2016-08-24T04:44:38.053Z,96.32
2016-08-24T04:45:37.489Z,96.32
2016-08-24T04:46:37.791Z,95.36
2016-08-24T04:47:38.156Z,95.36
2016-08-24T04:48:38.555Z,95.46
2016-08-24T04:49:37.834Z,96.51
2016-08-24T04:50:38.817Z,96.27
2016-08-24T04:51:38.509Z,96.42
2016-08-24T04:52:37.748Z,96.32
2016-08-24T04:53:37.755Z,96.99
2016-08-24T04:54:38.044Z,97.42
2016-08-24T04:55:39.148Z,98.09
2016-08-24T04:56:38.709Z,97.8
2016-08-24T04:57:38.547Z,96.84
2016-08-24T04:58:39.459Z,96.32
2016-08-24T04:59:37.816Z,96.22
2016-08-24T05:00:37.523Z,97.56
2016-08-24T05:01:38.715Z,97.66
2016-08-24T05:02:37.720Z,97.13
2016-08-24T05:03:38.657Z,97.61
2016-08-24T05:04:37.550Z,97.9
2016-08-24T05:05:39.115Z,97.99
2016-08-24T05:06:37.793Z,97.66
2016-08-24T05:07:39.077Z,97.75
2016-08-24T05:08:38.198Z,97.56
2016-08-24T05:09:37.740Z,97.85
2016-08-24T05:10:37.991Z,98.47
2016-08-24T05:11:38.520Z,98.47
2016-08-24T05:12:38.328Z,98.85
2016-08-24T05:13:39.119Z,98.75
2016-08-24T05:14:37.925Z,97.61
2016-08-24T05:15:38.461Z,97.85
2016-08-24T05:16:39.408Z,96.99
2016-08-24T05:17:38.106Z,96.7
2016-08-24T05:18:39.141Z,96.32
2016-08-24T05:19:38.647Z,95.94
2016-08-24T05:20:38.740Z,96.13
2016-08-24T05:21:38.498Z,96.32
2016-08-24T05:22:39.119Z,96.32
2016-08-24T05:23:39.717Z,96.7
2016-08-24T05:24:38.425Z,97.37
2016-08-24T05:25:39.539Z,97.56
2016-08-24T05:26:39.376Z,97.75
2016-08-24T05:27:39.387Z,96.89
2016-08-24T05:28:40.430Z,96.61
2016-08-24T05:29:39.159Z,96.22
2016-08-24T05:30:39.220Z,96.89
2016-08-24T05:31:38.783Z,97.56
2016-08-24T05:32:38.478Z,97.85
2016-08-24T05:33:39.168Z,97.33
2016-08-24T05:34:38.589Z,97.47
2016-08-24T05:35:40.559Z,97.66
2016-08-24T05:36:38.733Z,97.66
2016-08-24T05:37:39.921Z,98.52
2016-08-24T05:38:39.523Z,98.24
2016-08-24T05:39:38.875Z,98.61
2016-08-24T05:40:38.722Z,98.24
2016-08-24T05:41:39.121Z,98.61
2016-08-24T05:42:38.904Z,98.81
2016-08-24T05:43:39.216Z,98.86
2016-08-24T05:44:39.638Z,99.81
2016-08-24T05:45:39.406Z,99.15
2016-08-24T05:46:39.681Z,98.57
2016-08-24T05:47:39.518Z,98
2016-08-24T05:48:40.608Z,98.57
2016-08-24T05:49:39.822Z,98.81
2016-08-24T05:50:40.102Z,97.85
2016-08-24T05:51:40.054Z,97.85
2016-08-24T05:52:39.405Z,97.09
2016-08-24T05:53:39.454Z,98.05
2016-08-24T05:54:40.294Z,97.85
2016-08-24T05:55:39.466Z,97.66
2016-08-24T05:56:40.624Z,96.61
2016-08-24T05:57:39.143Z,97.95
2016-08-24T05:58:39.547Z,97.14
2016-08-24T05:59:39.785Z,96.66
2016-08-24T06:00:39.696Z,96.47
2016-08-24T06:01:39.422Z,96.94
2016-08-24T06:02:39.549Z,96.7
2016-08-24T06:03:39.628Z,96.51
2016-08-24T06:04:40.399Z,97.09
2016-08-24T06:05:39.561Z,96.94
2016-08-24T06:06:39.402Z,96.7
2016-08-24T06:07:40.081Z,96.32
2016-08-24T06:08:39.440Z,96.7
2016-08-24T06:09:39.311Z,96.51
2016-08-24T06:10:39.848Z,96.66
2016-08-24T06:11:39.336Z,96.61
2016-08-24T06:12:40.028Z,96.18
2016-08-24T06:13:41.153Z,96.47
2016-08-24T06:14:39.988Z,96.18
2016-08-24T06:15:39.233Z,96.56
2016-08-24T06:16:39.675Z,95.51
2016-08-24T06:17:39.236Z,95.31
2016-08-24T06:18:39.292Z,95.84
2016-08-24T06:19:41.092Z,95.65
2016-08-24T06:20:40.212Z,95.51
2016-08-24T06:21:39.868Z,95.75
2016-08-24T06:22:39.711Z,95.07
2016-08-24T06:23:39.803Z,95.07
2016-08-24T06:24:39.939Z,94.59
2016-08-24T06:25:40.256Z,93.97
2016-08-24T06:26:39.759Z,93.97
2016-08-24T06:27:40.618Z,93.68
2016-08-24T06:28:39.769Z,94.83
2016-08-24T06:29:41.166Z,93.77
2016-08-24T06:30:40.865Z,93.39
2016-08-24T06:31:40.397Z,93.49
2016-08-24T06:32:40.067Z,93.77
2016-08-24T06:33:39.947Z,93.39
2016-08-24T06:34:39.783Z,92.67
2016-08-24T06:35:40.897Z,92.57
2016-08-24T06:36:41.144Z,92
2016-08-24T06:37:40.897Z,91.81
2016-08-24T06:38:39.927Z,91.13
2016-08-24T06:39:41.474Z,91.33
2016-08-24T06:40:40.643Z,92.1
2016-08-24T06:41:40.289Z,90.31
2016-08-24T06:42:40.284Z,90.8
2016-08-24T06:43:40.844Z,89.93
2016-08-24T06:44:41.616Z,89.83
2016-08-24T06:45:41.012Z,88.92
2016-08-24T06:46:40.453Z,88.53
2016-08-24T06:47:40.249Z,88.06
2016-08-24T06:48:40.474Z,88.34
2016-08-24T06:49:41.008Z,87.09
2016-08-24T06:50:40.409Z,86.32
2016-08-24T06:51:40.837Z,85.98
2016-08-24T06:52:40.700Z,85.69
2016-08-24T06:53:41.864Z,84.83
2016-08-24T06:54:41.797Z,85.11
2016-08-24T06:55:42.497Z,85.11
2016-08-24T06:56:41.120Z,84.58
2016-08-24T06:57:41.428Z,84.29
2016-08-24T06:58:41.114Z,84.39
2016-08-24T06:59:40.342Z,84.29
2016-08-24T07:00:42.801Z,84.48
2016-08-24T07:01:41.704Z,83.28
2016-08-24T07:02:42.913Z,82.5
2016-08-24T07:03:40.936Z,82.02
2016-08-24T07:04:41.737Z,82.5
2016-08-24T07:05:40.418Z,83.08
2016-08-24T07:06:40.718Z,82.54
2016-08-24T07:07:42.059Z,81.68
2016-08-24T07:08:41.754Z,82.16
2016-08-24T07:09:40.830Z,81.77
2016-08-24T07:10:41.352Z,80.62
2016-08-24T07:11:41.969Z,82.45
2016-08-24T07:12:41.231Z,80.37
2016-08-24T07:13:41.747Z,78.83
2016-08-24T07:14:42.311Z,79.41
2016-08-24T07:15:42.534Z,78.77
2016-08-24T07:16:42.758Z,79.11
2016-08-24T07:17:42.628Z,78.54
2016-08-24T07:18:42.299Z,77.13
2016-08-24T07:19:41.711Z,76.68
2016-08-24T07:20:42.529Z,76.36
2016-08-24T07:21:41.891Z,75.82
2016-08-24T07:22:42.437Z,75.05
2016-08-24T07:23:43.843Z,76.1
2016-08-24T07:24:41.827Z,77.23
2016-08-24T07:25:42.048Z,75.14
2016-08-24T07:26:42.821Z,76.5
2016-08-24T07:27:41.388Z,75.3
2016-08-24T07:28:41.580Z,74.66
2016-08-24T07:29:41.854Z,73.73
2016-08-24T07:30:42.192Z,73.35
2016-08-24T07:31:44.113Z,74.76
2016-08-24T07:32:41.721Z,74.08
2016-08-24T07:33:41.838Z,73.35
2016-08-24T07:34:43.110Z,71.64
2016-08-24T07:35:41.891Z,71.06
2016-08-24T07:36:41.554Z,69.62
2016-08-24T07:37:42.263Z,71.88
2016-08-24T07:38:41.982Z,70.68
2016-08-24T07:39:42.323Z,69.46
2016-08-24T07:40:42.905Z,70.65
2016-08-24T07:41:41.895Z,69.42
2016-08-24T07:42:41.986Z,69.74
2016-08-24T07:43:41.592Z,69.74
2016-08-24T07:44:42.256Z,70.04
2016-08-24T07:45:42.780Z,68.91
2016-08-24T07:46:42.890Z,69.17
2016-08-24T07:47:42.191Z,67.85
2016-08-24T07:48:41.759Z,67.94
2016-08-24T07:49:43.003Z,68.17
2016-08-24T07:50:42.000Z,67.56
2016-08-24T07:51:42.360Z,67.69
2016-08-24T07:52:41.536Z,65.85
2016-08-24T07:53:44.213Z,66.17
2016-08-24T07:54:41.956Z,64.34
2016-08-24T07:55:43.777Z,63.79
2016-08-24T07:56:43.772Z,64.85
2016-08-24T07:57:42.318Z,64.37
2016-08-24T07:58:43.791Z,62.63
2016-08-24T07:59:42.347Z,62.75
2016-08-24T08:00:42.235Z,62.01
2016-08-24T08:01:42.546Z,62.85
2016-08-24T08:02:43.506Z,61.04
2016-08-24T08:03:41.959Z,62.04
2016-08-24T08:04:43.019Z,61.72
2016-08-24T08:05:43.584Z,61.91
2016-08-24T08:06:42.448Z,62.91
2016-08-24T08:07:42.470Z,63.04
2016-08-24T08:08:42.642Z,62.24
2016-08-24T08:09:43.204Z,60.39
2016-08-24T08:10:42.435Z,60.75
2016-08-24T08:11:42.991Z,61.58
2016-08-24T08:12:42.934Z,62.75
2016-08-24T08:13:43.206Z,63.14
2016-08-24T08:14:43.936Z,63.69
2016-08-24T08:15:44.193Z,61.18
2016-08-24T08:16:43.126Z,60.07
2016-08-24T08:17:43.114Z,60.3
2016-08-24T08:18:44.778Z,58.42
2016-08-24T08:19:43.662Z,58.48
2016-08-24T08:20:42.760Z,58.12
2016-08-24T08:21:43.958Z,58.8
2016-08-24T08:22:44.155Z,58.77
2016-08-24T08:23:44.403Z,59.67
2016-08-24T08:24:43.977Z,59.12
2016-08-24T08:25:44.872Z,57.51
2016-08-24T08:26:43.926Z,57.83
2016-08-24T08:27:43.061Z,58.54
2016-08-24T08:28:43.908Z,58.77
2016-08-24T08:29:43.661Z,58.03
2016-08-24T08:30:44.690Z,58.67
2016-08-24T08:31:44.290Z,60.1
2016-08-24T08:32:43.945Z,57.97
2016-08-24T08:33:43.963Z,57.37
2016-08-24T08:34:44.017Z,58.37
2016-08-24T08:35:43.824Z,58.12
2016-08-24T08:36:43.988Z,55.43
2016-08-24T08:37:43.207Z,54.42
2016-08-24T08:38:44.308Z,56.59
2016-08-24T08:39:43.607Z,57.31
2016-08-24T08:40:44.560Z,56.5
2016-08-24T08:41:43.934Z,55.88
2016-08-24T08:42:43.252Z,53.47
2016-08-24T08:43:43.965Z,51.75
2016-08-24T08:44:44.882Z,51.7
2016-08-24T08:45:44.251Z,53.11
2016-08-24T08:46:45.134Z,53.08
2016-08-24T08:47:44.599Z,51.77
2016-08-24T08:48:44.296Z,52.58
2016-08-24T08:49:44.641Z,50.78
2016-08-24T08:50:45.443Z,50.73
2016-08-24T08:51:44.189Z,50.6
2016-08-24T08:52:44.594Z,51.41
2016-08-24T08:53:45.589Z,52.19
2016-08-24T08:54:44.201Z,54.83
2016-08-24T08:55:44.559Z,54.8
2016-08-24T08:56:44.696Z,52.74
2016-08-24T08:57:44.447Z,51.65
2016-08-24T08:58:44.499Z,51.12
2016-08-24T08:59:44.348Z,50.02
2016-08-24T09:00:44.569Z,53.36
2016-08-24T09:01:44.264Z,53.06
2016-08-24T09:02:44.945Z,52.33
2016-08-24T09:03:45.357Z,53.42
2016-08-24T09:04:44.927Z,53.08
2016-08-24T09:05:45.138Z,55.27
2016-08-24T09:06:44.791Z,54.93
2016-08-24T09:07:45.338Z,51.02
2016-08-24T09:08:44.847Z,49.22
2016-08-24T09:09:45.597Z,48.44
2016-08-24T09:10:44.669Z,46.73
2016-08-24T09:11:45.114Z,46.66
2016-08-24T09:12:45.259Z,50.58
2016-08-24T09:13:45.109Z,51.51
2016-08-24T09:14:45.011Z,50.82
2016-08-24T09:15:46.159Z,48.63
2016-08-24T09:16:45.656Z,49.17
2016-08-24T09:17:45.357Z,50.04
2016-08-24T09:18:44.557Z,49.29
2016-08-24T09:19:45.061Z,49.97
2016-08-24T09:20:45.129Z,53.33
2016-08-24T09:21:44.534Z,55.68
2016-08-24T09:22:46.183Z,53.28
2016-08-24T09:23:46.024Z,50.58
2016-08-24T09:24:46.244Z,45.64
2016-08-24T09:25:46.464Z,46.48
2016-08-24T09:26:44.824Z,45.26
2016-08-24T09:27:45.027Z,47.56
2016-08-24T09:28:45.338Z,45.34
2016-08-24T09:29:45.184Z,46.19
2016-08-24T09:30:45.419Z,45.97
2016-08-24T09:31:45.794Z,44.58
2016-08-24T09:32:45.822Z,44.18
2016-08-24T09:33:45.648Z,46.31
2016-08-24T09:34:46.263Z,46.46
2016-08-24T09:35:45.540Z,44.53
2016-08-24T09:36:46.676Z,46.01
2016-08-24T09:37:46.752Z,43.68
2016-08-24T09:38:45.853Z,45.21
2016-08-24T09:39:46.480Z,44.34
2016-08-24T09:40:45.923Z,44.7
2016-08-24T09:41:46.376Z,46.39
2016-08-24T09:42:45.825Z,45.15
2016-08-24T09:43:46.852Z,43.89
2016-08-24T09:44:47.256Z,44.74
2016-08-24T09:45:46.815Z,46.22
2016-08-24T09:46:46.414Z,44.43
2016-08-24T09:47:45.700Z,41.8
2016-08-24T09:48:45.896Z,43.62
2016-08-24T09:49:49.513Z,47.05
2016-08-24T09:50:46.746Z,48.02
2016-08-24T09:51:47.884Z,45.29
2016-08-24T09:52:47.862Z,43.55
2016-08-24T09:53:47.015Z,43.79
2016-08-24T09:54:45.644Z,43.36
2016-08-24T09:55:46.170Z,44.67
2016-08-24T09:56:46.461Z,44.78
2016-08-24T09:57:46.534Z,43.18
2016-08-24T09:58:46.826Z,42.16
2016-08-24T09:59:46.943Z,41.91
2016-08-24T10:00:47.518Z,39.9
2016-08-24T10:01:48.291Z,41.36
2016-08-24T10:02:46.857Z,39.28
2016-08-24T10:03:46.800Z,40.41
2016-08-24T10:04:46.622Z,41.82
2016-08-24T10:05:46.356Z,42.93
2016-08-24T10:06:46.832Z,41.95
2016-08-24T10:07:46.770Z,42.99
2016-08-24T10:08:47.732Z,40.94
2016-08-24T10:09:48.026Z,38.57
2016-08-24T10:10:47.000Z,34.69
2016-08-24T10:11:47.930Z,33.15
2016-08-24T10:12:46.561Z,36.09
2016-08-24T10:13:47.925Z,38.28
2016-08-24T10:14:48.104Z,36.92
2016-08-24T10:15:46.968Z,36.88
2016-08-24T10:16:47.553Z,36.61
2016-08-24T10:17:47.353Z,35.89
2016-08-24T10:18:48.857Z,32.97
2016-08-24T10:19:48.350Z,34.47
2016-08-24T10:20:46.824Z,34.7
2016-08-24T10:21:48.724Z,34.67
2016-08-24T10:22:48.105Z,33.8
2016-08-24T10:23:47.871Z,32.32
2016-08-24T10:24:47.447Z,31.63
2016-08-24T10:25:47.285Z,32.81
2016-08-24T10:26:49.565Z,32.12
2016-08-24T10:27:47.472Z,31.23
2016-08-24T10:28:47.536Z,32.81
2016-08-24T10:29:48.500Z,32.45
2016-08-24T10:30:48.150Z,31.54
2016-08-24T10:31:47.259Z,32.04
2016-08-24T10:32:48.621Z,31.35
2016-08-24T10:33:47.506Z,31.27
2016-08-24T10:34:49.399Z,30.75
2016-08-24T10:35:47.725Z,30.8
2016-08-24T10:36:48.562Z,30.85
2016-08-24T10:37:49.040Z,31.48
2016-08-24T10:38:47.844Z,31.04
2016-08-24T10:39:48.943Z,30.19
2016-08-24T10:40:48.859Z,29.58
2016-08-24T10:41:48.064Z,28.05
2016-08-24T10:42:48.891Z,28.05
2016-08-24T10:43:49.839Z,28.82
2016-08-24T10:44:49.189Z,29.21
2016-08-24T10:45:48.277Z,30.19
2016-08-24T10:46:47.825Z,29.34
2016-08-24T10:47:49.967Z,28.54
2016-08-24T10:48:49.218Z,29.52
2016-08-24T10:49:49.004Z,28.59
2016-08-24T10:50:49.040Z,29.34
2016-08-24T10:51:48.669Z,28.82
2016-08-24T10:52:49.279Z,30.75
2016-08-24T10:53:48.199Z,31.51
2016-08-24T10:54:49.123Z,32.68
2016-08-24T10:55:50.463Z,29.48
2016-08-24T10:56:49.223Z,29.5
2016-08-24T10:57:49.696Z,29.49
2016-08-24T10:58:48.911Z,29.33
2016-08-24T10:59:49.531Z,30.67
2016-08-24T11:00:50.098Z,30.91
2016-08-24T11:01:49.478Z,30.35
2016-08-24T11:02:48.735Z,28.63
2016-08-24T11:03:49.411Z,28.65
2016-08-24T11:04:49.856Z,27.92
2016-08-24T11:05:49.143Z,29.25
2016-08-24T11:06:50.083Z,29.41
2016-08-24T11:07:48.627Z,28.03
2016-08-24T11:08:49.671Z,28.08
2016-08-24T11:09:49.366Z,26.24
2016-08-24T11:10:48.733Z,26.63
2016-08-24T11:11:49.526Z,27.43
2016-08-24T11:12:49.330Z,26.81
2016-08-24T11:13:49.626Z,26.63
2016-08-24T11:14:49.701Z,29.09
2016-08-24T11:15:51.004Z,28.13
2016-08-24T11:16:49.573Z,27.02
2016-08-24T11:17:49.866Z,28.29
2016-08-24T11:18:50.163Z,28.54
2016-08-24T11:19:50.129Z,27.15
2016-08-24T11:20:50.188Z,27.99
2016-08-24T11:21:49.866Z,26.42
2016-08-24T11:22:49.541Z,25.88
2016-08-24T11:23:49.899Z,26.67
2016-08-24T11:24:49.587Z,26.67
2016-08-24T11:25:49.811Z,26.36
2016-08-24T11:26:50.832Z,27.02
2016-08-24T11:27:50.060Z,26.82
2016-08-24T11:28:51.176Z,26.35
2016-08-24T11:29:51.008Z,26.24
2016-08-24T11:30:50.943Z,27.92
2016-08-24T11:31:49.645Z,26.24
2016-08-24T11:32:50.676Z,27.02
2016-08-24T11:33:51.886Z,28.02
2016-08-24T11:34:50.447Z,26.56
2016-08-24T11:35:49.971Z,26.81
2016-08-24T11:36:50.384Z,27.42
2016-08-24T11:37:49.945Z,29.24
2016-08-24T11:38:52.728Z,28.57
2016-08-24T11:39:51.889Z,28.5
2016-08-24T11:40:51.442Z,27.8
2016-08-24T11:41:51.347Z,28.93
2016-08-24T11:42:53.108Z,29
2016-08-24T11:43:51.710Z,26.61
2016-08-24T11:44:51.195Z,24.8
2016-08-24T11:45:49.904Z,23.25
2016-08-24T11:46:50.725Z,25.81
2016-08-24T11:47:50.831Z,24.62
2016-08-24T11:48:51.191Z,23.55
2016-08-24T11:49:51.076Z,24.64
2016-08-24T11:50:51.957Z,26.26
2016-08-24T11:51:50.626Z,26.84
2016-08-24T11:52:51.565Z,25.67
2016-08-24T11:53:50.770Z,25.2
2016-08-24T11:54:52.541Z,25.12
2016-08-24T11:55:50.583Z,26.68
2016-08-24T11:56:52.672Z,26.09
2016-08-24T11:57:51.113Z,24.51
2016-08-24T11:58:51.547Z,26.29
2016-08-24T11:59:51.020Z,27.16
2016-08-24T12:00:52.831Z,24.91
2016-08-24T12:01:51.625Z,24.44
2016-08-24T12:02:53.011Z,26.51
2016-08-24T12:03:52.466Z,26.84
2016-08-24T12:04:53.278Z,26.93
2016-08-24T12:05:51.926Z,25.4
2016-08-24T12:06:52.933Z,24.12
2016-08-24T12:07:51.478Z,24.84
2016-08-24T12:08:52.764Z,27.16
2016-08-24T12:09:51.442Z,26.65
2016-08-24T12:10:51.715Z,26.3
2016-08-24T12:11:52.148Z,24.84
2016-08-24T12:12:53.356Z,23.55
2016-08-24T12:13:53.404Z,24.45
2016-08-24T12:14:51.499Z,24.71
2016-08-24T12:15:51.351Z,24.02
2016-08-24T12:16:54.263Z,24.64
2016-08-24T12:17:52.135Z,26.19
2016-08-24T12:18:53.715Z,25.26
2016-08-24T12:19:52.406Z,24.08
2016-08-24T12:20:52.218Z,22.75
2016-08-24T12:21:52.625Z,23.27
2016-08-24T12:22:52.492Z,23.77
2016-08-24T12:23:52.978Z,22.49
2016-08-24T12:24:52.718Z,21.5
2016-08-24T12:25:51.982Z,23.06
2016-08-24T12:26:51.872Z,21.67
2016-08-24T12:27:52.160Z,22.41
2016-08-24T12:28:53.145Z,21.8
2016-08-24T12:29:53.725Z,23.27
2016-08-24T12:30:52.638Z,22.19
2016-08-24T12:31:54.379Z,21.79
2016-08-24T12:32:53.187Z,21.98
2016-08-24T12:33:52.865Z,21.56
2016-08-24T12:34:52.182Z,20.81
2016-08-24T12:35:53.247Z,21.02
2016-08-24T12:36:52.307Z,20.45
2016-08-24T12:37:53.057Z,21.03
2016-08-24T12:38:52.758Z,20.92
2016-08-24T12:39:53.678Z,19.36
2016-08-24T12:40:52.556Z,21.84
2016-08-24T12:41:53.725Z,20.79
2016-08-24T12:42:52.801Z,20.52
2016-08-24T12:43:53.990Z,21.72
2016-08-24T12:44:54.272Z,21.62
2016-08-24T12:45:52.954Z,21.41
2016-08-24T12:46:53.780Z,20.7
2016-08-24T12:47:54.841Z,21.22
2016-08-24T12:48:54.117Z,21.09
2016-08-24T12:49:53.402Z,20.48
2016-08-24T12:50:53.234Z,21
2016-08-24T12:51:53.605Z,20.9
2016-08-24T12:52:54.182Z,20.88
2016-08-24T12:53:54.508Z,21.1
2016-08-24T12:54:54.366Z,21.1
2016-08-24T12:55:54.099Z,21.11